createdAt,value
2023-05-25T08:20:42.149Z,82.50
2023-05-25T08:23:09.193Z,82.60
2023-05-25T08:25:36.070Z,83.20
2023-05-25T08:28:02.944Z,83.70
2023-05-25T08:30:30.689Z,85.30
2023-05-25T08:32:57.642Z,86.00
2023-05-25T08:35:24.697Z,86.60
2023-05-25T08:37:52.060Z,85.60
2023-05-25T08:40:22.570Z,86.50
2023-05-25T08:42:49.483Z,86.10
2023-05-25T08:45:26.899Z,85.80
2023-05-25T08:48:04.413Z,85.10
2023-05-25T08:50:33.684Z,84.50
2023-05-25T08:53:05.152Z,83.90
2023-05-25T08:55:36.502Z,83.10
2023-05-25T08:58:10.547Z,82.80
2023-05-25T09:00:53.550Z,81.50
2023-05-25T09:03:23.206Z,81.10
2023-05-25T09:05:51.236Z,80.60
2023-05-25T09:08:18.883Z,80.40
2023-05-25T09:10:46.309Z,80.50
2023-05-25T09:13:22.025Z,79.40
2023-05-25T09:15:50.658Z,78.60
2023-05-25T09:18:20.200Z,79.30
2023-05-25T09:20:47.807Z,79.40
2023-05-25T09:23:15.481Z,78.30
2023-05-25T09:25:43.914Z,78.00
2023-05-25T09:28:25.766Z,77.60
2023-05-25T09:30:54.490Z,77.40
2023-05-25T09:33:21.673Z,78.70
2023-05-25T09:35:48.822Z,76.40
2023-05-25T09:38:17.134Z,76.80
2023-05-25T09:40:45.445Z,75.10
2023-05-25T09:43:21.862Z,75.90
2023-05-25T09:45:53.067Z,75.30
2023-05-25T09:48:21.896Z,77.50
2023-05-25T09:50:50.135Z,75.70
2023-05-25T09:53:17.257Z,75.50
2023-05-25T09:55:52.327Z,75.50
2023-05-25T09:58:24.782Z,75.70
2023-05-25T10:00:54.708Z,74.30
2023-05-25T10:03:24.663Z,73.20
2023-05-25T10:05:53.377Z,73.70
2023-05-25T10:08:21.959Z,74.30
2023-05-25T10:10:50.185Z,72.40
2023-05-25T10:13:22.449Z,72.10
2023-05-25T10:15:53.957Z,72.80
2023-05-25T10:18:27.452Z,71.20
2023-05-25T10:21:02.468Z,71.50
2023-05-25T10:23:50.914Z,71.70
2023-05-25T10:26:24.394Z,70.20
2023-05-25T10:28:52.149Z,70.50
2023-05-25T10:31:19.289Z,70.60
2023-05-25T10:33:50.573Z,71.00
2023-05-25T10:36:21.308Z,71.40
2023-05-25T10:38:51.845Z,71.20
2023-05-25T10:41:20.371Z,69.50
2023-05-25T10:43:47.644Z,69.90
2023-05-25T10:46:15.318Z,71.10
2023-05-25T10:48:50.359Z,70.30
2023-05-25T10:51:20.659Z,69.00
2023-05-25T10:53:58.382Z,67.60
2023-05-25T10:56:25.242Z,69.80
2023-05-25T10:58:56.662Z,69.90
2023-05-25T11:01:23.690Z,70.30
2023-05-25T11:04:13.792Z,67.40
2023-05-25T11:06:40.732Z,67.40
2023-05-25T11:09:08.053Z,66.90
2023-05-25T11:11:44.461Z,70.30
2023-05-25T11:14:27.742Z,68.60
2023-05-25T11:17:16.350Z,66.40
2023-05-25T11:19:52.966Z,65.90
2023-05-25T11:22:21.652Z,64.60
2023-05-25T11:24:52.354Z,64.70
2023-05-25T11:27:29.655Z,64.50
2023-05-25T11:29:59.526Z,64.00
2023-05-25T11:32:28.326Z,64.20
2023-05-25T11:34:57.908Z,64.60
2023-05-25T11:37:29.041Z,62.50
2023-05-25T11:39:56.068Z,62.50
2023-05-25T11:42:26.309Z,60.60
2023-05-25T11:44:53.708Z,61.90
2023-05-25T11:47:25.055Z,61.90
2023-05-25T11:49:55.574Z,60.60
2023-05-25T11:52:23.127Z,62.60
2023-05-25T11:54:50.050Z,63.00
2023-05-25T11:57:25.271Z,63.20
2023-05-25T11:59:54.331Z,62.20
2023-05-25T12:02:23.388Z,61.90
2023-05-25T12:05:11.133Z,61.20
2023-05-25T12:07:44.808Z,60.00
2023-05-25T12:10:13.520Z,59.20
2023-05-25T12:12:47.903Z,60.10
2023-05-25T12:15:22.133Z,60.10
2023-05-25T12:17:49.637Z,60.30
2023-05-25T12:20:17.778Z,60.10
2023-05-25T14:13:20.554Z,57.80
2023-05-25T14:15:47.811Z,60.00
2023-05-25T14:18:14.971Z,59.90
2023-05-25T14:20:42.874Z,58.70
2023-05-25T14:23:15.094Z,58.40
2023-05-25T14:25:42.923Z,58.20
2023-05-25T14:28:12.744Z,58.50
2023-05-25T14:30:39.709Z,58.20
2023-05-25T14:33:06.824Z,58.80
2023-05-25T14:35:33.828Z,59.50
2023-05-25T14:38:00.677Z,58.00
2023-05-25T14:40:27.603Z,58.30
2023-05-25T14:42:55.581Z,58.80
2023-05-25T14:45:22.711Z,59.50
2023-05-25T14:47:51.998Z,60.50
2023-05-25T14:50:26.418Z,60.00
2023-05-25T14:52:54.679Z,60.60
2023-05-25T14:55:21.612Z,59.50
2023-05-25T14:57:48.625Z,59.30
2023-05-25T15:00:15.931Z,59.70
2023-05-25T15:02:42.882Z,59.70
2023-05-25T15:05:09.988Z,59.50
2023-05-25T15:07:36.936Z,60.10
2023-05-25T15:10:06.859Z,63.50
2023-05-25T15:12:33.843Z,60.30
2023-05-25T15:15:00.988Z,59.90
2023-05-25T15:17:28.138Z,59.90
2023-05-25T15:19:55.277Z,59.60
2023-05-25T15:22:22.163Z,59.80
2023-05-25T15:24:49.065Z,60.90
2023-05-25T15:27:16.029Z,61.90
2023-05-25T15:29:42.893Z,59.80
2023-05-25T15:32:13.177Z,59.80
2023-05-25T15:34:40.905Z,62.00
2023-05-25T15:37:07.760Z,61.60
2023-05-25T15:39:34.658Z,59.60
2023-05-25T15:42:01.886Z,59.60
2023-05-25T15:44:30.253Z,62.40
2023-05-25T15:46:57.381Z,60.00
2023-05-25T15:49:24.394Z,61.40
2023-05-25T15:51:53.299Z,61.20
2023-05-25T15:54:20.243Z,60.10
2023-05-25T15:56:47.180Z,61.50
2023-05-25T15:59:14.050Z,60.80
2023-05-25T16:01:41.136Z,61.60
2023-05-25T16:04:10.993Z,64.00
2023-05-25T16:06:40.743Z,63.10
2023-05-25T16:09:08.230Z,63.40
2023-05-25T16:11:35.509Z,65.00
2023-05-25T16:14:02.535Z,63.90
2023-05-25T16:16:29.666Z,63.30
2023-05-25T16:18:58.993Z,63.20
2023-05-25T16:21:26.053Z,65.80
2023-05-25T16:23:52.942Z,62.60
2023-05-25T16:26:19.841Z,64.00
2023-05-25T16:28:46.743Z,64.00
2023-05-25T16:31:16.604Z,63.80
2023-05-25T16:33:43.760Z,64.00
2023-05-25T16:36:12.867Z,62.30
2023-05-25T16:38:40.503Z,61.20
2023-05-25T16:41:07.582Z,60.00
2023-05-25T16:43:34.515Z,61.70
2023-05-25T16:46:01.483Z,62.80
2023-05-25T16:48:31.236Z,64.10
2023-05-25T16:50:58.433Z,63.50
2023-05-25T16:53:25.521Z,66.10
2023-05-25T16:55:53.854Z,65.60
2023-05-25T16:58:20.879Z,63.90
2023-05-25T17:00:47.931Z,65.10
2023-05-25T17:03:14.963Z,64.80
2023-05-25T17:05:42.158Z,64.20
2023-05-25T17:08:09.568Z,65.00
2023-05-25T17:10:36.471Z,64.60
2023-05-25T17:13:03.415Z,65.70
2023-05-25T17:15:30.559Z,66.20
2023-05-25T17:17:57.532Z,66.10
2023-05-25T17:20:25.832Z,68.20
2023-05-25T17:22:53.020Z,65.20
2023-05-25T17:25:21.695Z,64.60
2023-05-25T17:27:48.707Z,65.40
2023-05-25T17:30:18.405Z,65.50
2023-05-25T17:32:47.042Z,66.70
2023-05-25T17:35:14.548Z,66.40
2023-05-25T17:37:41.417Z,67.50
2023-05-25T17:40:08.819Z,67.30
2023-05-25T17:42:40.484Z,66.90
2023-05-25T17:45:11.736Z,69.90
2023-05-25T17:47:38.800Z,68.00
2023-05-25T17:50:06.731Z,66.20
2023-05-25T17:52:33.639Z,66.20
2023-05-25T17:55:03.471Z,67.40
2023-05-25T17:57:30.574Z,65.60
2023-05-25T17:59:57.458Z,66.50
2023-05-25T18:02:25.840Z,65.60
2023-05-25T18:04:52.867Z,65.40
2023-05-25T18:07:22.104Z,67.90
2023-05-25T18:09:49.276Z,67.80
2023-05-25T18:12:16.181Z,66.90
2023-05-25T18:14:43.215Z,68.30
2023-05-25T18:17:10.319Z,66.20
2023-05-25T18:19:37.370Z,66.60
2023-05-25T18:22:04.500Z,67.30
2023-05-25T18:24:32.622Z,66.60
2023-05-25T18:27:03.589Z,67.20
2023-05-25T18:29:31.580Z,66.90
2023-05-25T18:31:58.441Z,66.60
2023-05-25T18:34:25.559Z,67.30
2023-05-25T18:36:52.464Z,68.00
2023-05-25T18:39:24.572Z,67.80
2023-05-25T18:41:52.045Z,68.20
2023-05-25T18:44:21.099Z,68.40
2023-05-25T18:46:51.098Z,68.50
2023-05-25T18:49:18.075Z,69.10
2023-05-25T18:51:46.123Z,69.20
2023-05-25T18:54:13.533Z,70.00
2023-05-25T18:56:43.249Z,71.70
2023-05-25T18:59:10.117Z,71.00
2023-05-25T19:01:37.179Z,71.10
2023-05-25T19:04:04.265Z,73.30
2023-05-25T19:06:32.457Z,71.60
2023-05-25T19:09:00.480Z,72.20
2023-05-25T19:11:27.433Z,73.40
2023-05-25T19:13:57.900Z,72.70
2023-05-25T19:16:24.999Z,72.60
2023-05-25T19:18:55.538Z,72.30
2023-05-25T19:21:23.742Z,72.90
2023-05-25T19:23:55.917Z,75.10
2023-05-25T19:26:24.016Z,72.80
2023-05-25T19:28:55.551Z,72.80
2023-05-25T19:31:23.494Z,74.00
2023-05-25T19:33:54.351Z,74.20
2023-05-25T19:36:24.075Z,73.30
2023-05-25T19:38:53.739Z,74.00
2023-05-25T19:41:21.362Z,75.30
2023-05-25T19:43:48.424Z,74.70
2023-05-25T19:46:15.434Z,75.50
2023-05-25T19:48:43.320Z,74.60
2023-05-25T19:51:12.561Z,75.30
2023-05-25T19:53:40.721Z,76.90
2023-05-25T19:56:08.925Z,77.10
2023-05-25T19:58:36.953Z,74.80
2023-05-25T20:01:04.354Z,75.20
2023-05-25T20:03:33.628Z,75.20
2023-05-25T20:06:00.815Z,75.70
2023-05-25T20:08:30.306Z,75.30
2023-05-25T20:10:57.498Z,75.80
2023-05-25T20:13:28.700Z,76.20
2023-05-25T20:15:59.243Z,76.30
2023-05-25T20:18:26.196Z,76.50
2023-05-25T20:20:53.194Z,76.60
2023-05-25T20:23:22.513Z,76.60
2023-05-25T20:25:49.364Z,76.90
2023-05-25T20:28:16.794Z,76.80
2023-05-25T20:30:43.664Z,77.10
